• Join FlightAware (Why Join?)
  • Login
  • US Flag 
07:26PM EST


 

Airport Tracker/Info


-or-


 

Live Flight TrackerFlight Track Log ✈ LXJ541 ✈ 16-Apr-2013 ✈ KTEB - KBWI

Flight Track Log - Related Links

Times and Time Zones

All times are in EDT time to prevent confusion due to time zone crossing. See the LXJ541 flight status page for this flight to view local times or setup timezone preferences in your user account.

Time Position Orientation Groundspeed Altitude Reporting Facility
EDT Latitude Longitude Course Direction KTS MPH feet Rate Location/Type
02:25PM 40.8333 -74.1000 255° West 176 203 1,600  Level New York TRACON
02:26PM 40.8167 -74.1833 255° West 202 232 3,100 3,000 Climbing New York TRACON
02:27PM 40.8000 -74.2500 252° West 225 259 7,600 3,720 Climbing New York TRACON
02:29PM 40.7508 -74.4308 250° West 275 316 14,200 2,820 Climbing New York Center
02:30PM 40.6981 -74.5183 232° Southwest 320 368 16,100 1,860 Climbing New York Center
02:31PM 40.6319 -74.6267 231° Southwest 357 411 17,900 900 Climbing New York Center
02:32PM 40.5769 -74.7192 232° Southwest 357 411 18,000  Climbing New York Center
02:33PM 40.5064 -74.8325 231° Southwest 363 418 18,000  Level New York Center
02:34PM 40.4486 -74.9300 232° Southwest 363 418 18,000  Level New York Center
02:35PM 40.3828 -75.0269 228° Southwest 363 418 18,000  Level New York Center
02:36PM 40.3081 -75.1311 227° Southwest 363 418 18,000  Level New York Center
02:37PM 40.2397 -75.2275 227° Southwest 363 418 18,000  Level New York Center
02:38PM 40.1672 -75.3261 226° Southwest 373 429 18,000  Level New York Center
02:39PM 40.0967 -75.4244 227° Southwest 379 436 18,000  Level New York Center
02:40PM 40.0306 -75.5150 226° Southwest 361 415 18,000 -180 Level New York Center
02:41PM 39.9622 -75.6078 226° Southwest 355 409 17,700 -1,260 Descending New York Center
02:42PM 39.8953 -75.7169 231° Southwest 372 428 15,600 -1,680 Descending New York Center
02:43PM 39.8406 -75.8214 236° Southwest 372 428 14,400 -960 Descending New York Center
02:45PM 39.7167 -76.0500 235° Southwest 336 387 12,500 -780 Descending Potomac TRACON
02:46PM 39.6667 -76.1333 232° Southwest 300 345 12,000 -900 Descending Potomac TRACON
02:47PM 39.6333 -76.2167 243° Southwest 254 292 10,800 -1,620 Descending Potomac TRACON
02:48PM 39.6000 -76.3000 243° Southwest 262 302 8,800 -2,040 Descending Potomac TRACON
02:49PM 39.5500 -76.3833 232° Southwest 264 304 6,600 -1,800 Descending Potomac TRACON
02:50PM 39.5167 -76.4500 237° Southwest 258 297 5,300 -1,380 Descending Potomac TRACON
02:51PM 39.4667 -76.5167 226° Southwest 241 277 4,000 -1,140 Descending Potomac TRACON
02:52PM 39.4167 -76.5833 226° Southwest 221 254 3,000 -780 Descending Potomac TRACON
02:53PM 39.3833 -76.6167 218° Southwest 227 261 2,500 -300 Descending Potomac TRACON
02:54PM 39.3333 -76.6833 226° Southwest 221 254 2,500 -240 Level Potomac TRACON
02:55PM 39.2833 -76.7167 207° Southwest 181 208 2,100 -540 Descending Potomac TRACON
02:56PM 39.2333 -76.7167 180° South 163 188 1,500 -600 Descending Potomac TRACON